sensor_id;sensor_type;location;lat;lon;timestamp;pressure;altitude;pressure_sealevel;temperature;humidity
79316;BME280;68779;50.036;19.964;2023-12-22T00:28:12;98561.69;;;10.68;54.69
79316;BME280;68779;50.036;19.964;2023-12-22T00:58:27;98650.79;;;10.73;53.72
79316;BME280;68779;50.036;19.964;2023-12-22T01:28:41;98658.35;;;10.49;54.53
79316;BME280;68779;50.036;19.964;2023-12-22T01:58:58;98680.75;;;10.30;54.02
79316;BME280;68779;50.036;19.964;2023-12-22T02:29:15;98679.76;;;9.96;53.57
79316;BME280;68779;50.036;19.964;2023-12-22T02:59:29;98685.48;;;9.14;52.68
79316;BME280;68779;50.036;19.964;2023-12-22T03:29:46;98684.86;;;9.48;53.35
79316;BME280;68779;50.036;19.964;2023-12-22T03:59:59;98714.17;;;9.38;53.92
79316;BME280;68779;50.036;19.964;2023-12-22T04:30:14;98729.31;;;9.33;47.52
79316;BME280;68779;50.036;19.964;2023-12-22T05:00:28;98699.48;;;9.33;50.07
79316;BME280;68779;50.036;19.964;2023-12-22T05:30:45;98764.38;;;9.05;51.53
79316;BME280;68779;50.036;19.964;2023-12-22T06:01:00;98868.55;;;7.18;59.60
79316;BME280;68779;50.036;19.964;2023-12-22T06:31:22;98885.88;;;7.48;56.20
79316;BME280;68779;50.036;19.964;2023-12-22T07:01:36;98921.73;;;7.42;55.94
79316;BME280;68779;50.036;19.964;2023-12-22T07:31:51;98950.96;;;7.46;55.40
79316;BME280;68779;50.036;19.964;2023-12-22T08:02:05;98962.59;;;8.18;53.47
79316;BME280;68779;50.036;19.964;2023-12-22T08:32:20;98952.27;;;8.60;52.34
79316;BME280;68779;50.036;19.964;2023-12-22T09:02:35;98940.84;;;8.73;52.22
79316;BME280;68779;50.036;19.964;2023-12-22T10:03:50;98905.70;;;9.02;53.53
79316;BME280;68779;50.036;19.964;2023-12-22T10:34:06;98923.40;;;8.44;54.18
79316;BME280;68779;50.036;19.964;2023-12-22T11:04:31;98891.06;;;9.77;50.51
79316;BME280;68779;50.036;19.964;2023-12-22T11:34:52;98927.45;;;8.49;55.22
79316;BME280;68779;50.036;19.964;2023-12-22T12:35:37;98895.13;;;8.70;55.90
79316;BME280;68779;50.036;19.964;2023-12-22T13:05:52;98857.49;;;8.21;54.98
79316;BME280;68779;50.036;19.964;2023-12-22T13:36:09;98882.05;;;8.20;53.32
79316;BME280;68779;50.036;19.964;2023-12-22T14:06:26;98892.90;;;6.86;56.49
79316;BME280;68779;50.036;19.964;2023-12-22T14:36:44;98900.10;;;7.42;51.53
79316;BME280;68779;50.036;19.964;2023-12-22T15:06:59;98916.02;;;7.21;46.06
79316;BME280;68779;50.036;19.964;2023-12-22T15:37:16;98912.43;;;7.99;44.53
79316;BME280;68779;50.036;19.964;2023-12-22T16:07:31;98923.26;;;7.99;44.67
79316;BME280;68779;50.036;19.964;2023-12-22T16:37:45;98933.29;;;7.83;44.03
79316;BME280;68779;50.036;19.964;2023-12-22T17:38:30;98975.73;;;7.90;45.11
79316;BME280;68779;50.036;19.964;2023-12-22T18:24:18;98982.99;;;7.90;46.09
79316;BME280;68779;50.036;19.964;2023-12-22T18:54:34;98952.14;;;7.44;49.33
79316;BME280;68779;50.036;19.964;2023-12-22T19:24:50;98983.69;;;7.84;47.16
79316;BME280;68779;50.036;19.964;2023-12-22T19:55:10;98986.09;;;7.62;45.93
79316;BME280;68779;50.036;19.964;2023-12-22T20:25:25;99005.87;;;7.07;49.12
79316;BME280;68779;50.036;19.964;2023-12-22T20:55:40;99004.67;;;7.01;48.77
79316;BME280;68779;50.036;19.964;2023-12-22T21:25:55;99057.80;;;6.68;47.51
79316;BME280;68779;50.036;19.964;2023-12-22T21:56:21;99070.41;;;7.10;47.26
79316;BME280;68779;50.036;19.964;2023-12-22T22:26:39;99069.34;;;6.94;46.35
79316;BME280;68779;50.036;19.964;2023-12-22T22:56:59;99055.56;;;7.30;45.38
79316;BME280;68779;50.036;19.964;2023-12-22T23:27:13;99050.31;;;7.20;45.27
79316;BME280;68779;50.036;19.964;2023-12-22T23:57:28;99075.45;;;7.04;46.88
